createdAt,value
2022-10-21T00:00:15.177Z,14.23
2022-10-21T00:03:04.433Z,13.00
2022-10-21T00:05:34.037Z,15.00
2022-10-21T00:08:04.750Z,14.32
2022-10-21T00:10:34.219Z,13.50
2022-10-21T00:13:03.572Z,13.73
2022-10-21T00:15:33.100Z,14.60
2022-10-21T00:18:02.315Z,12.55
2022-10-21T00:20:33.645Z,12.77
2022-10-21T00:23:06.761Z,13.60
2022-10-21T00:25:36.218Z,14.85
2022-10-21T00:28:05.472Z,15.35
2022-10-21T00:30:35.018Z,16.25
2022-10-21T00:33:04.236Z,17.20
2022-10-21T00:35:35.670Z,16.73
2022-10-21T00:38:06.376Z,15.45
2022-10-21T00:40:36.121Z,16.33
2022-10-21T00:43:05.406Z,15.82
2022-10-21T00:45:34.986Z,15.10
2022-10-21T00:48:06.988Z,14.85
2022-10-21T00:50:42.446Z,14.02
2022-10-21T00:53:16.102Z,14.88
2022-10-21T00:55:49.171Z,17.10
2022-10-21T00:58:21.198Z,18.05
2022-10-21T01:00:52.838Z,17.33
2022-10-21T01:03:22.364Z,16.50
2022-10-21T01:05:52.700Z,16.13
2022-10-21T01:08:24.223Z,16.45
2022-10-21T01:10:54.531Z,15.90
2022-10-21T01:13:33.631Z,15.20
2022-10-21T01:16:09.279Z,15.63
2022-10-21T01:18:48.730Z,14.60
2022-10-21T01:21:28.762Z,16.98
2022-10-21T01:24:31.129Z,15.85
2022-10-21T01:27:36.492Z,14.70
2022-10-21T01:30:18.499Z,17.55
2022-10-21T01:35:49.377Z,16.08
2022-10-21T01:38:25.543Z,15.55
2022-10-21T01:41:00.827Z,14.98
2022-10-21T01:43:38.588Z,17.25
2022-10-21T01:46:13.943Z,15.82
2022-10-21T01:48:50.918Z,14.57
2022-10-21T01:51:21.419Z,14.73
2022-10-21T01:53:56.574Z,15.30
2022-10-21T01:56:27.062Z,15.67
2022-10-21T01:58:57.320Z,15.23
2022-10-21T02:01:27.162Z,15.60
2022-10-21T02:04:02.197Z,15.10
2022-10-21T02:06:32.181Z,16.35
2022-10-21T02:09:02.185Z,13.38
2022-10-21T02:11:33.451Z,16.42
2022-10-21T02:14:07.663Z,15.10
2022-10-21T02:16:40.339Z,15.15
2022-10-21T02:19:17.291Z,15.88
2022-10-21T02:21:48.579Z,13.18
2022-10-21T02:24:23.114Z,13.77
2022-10-21T02:26:52.489Z,14.07
2022-10-21T02:29:27.760Z,14.05
2022-10-21T02:36:57.509Z,13.15
2022-10-21T02:39:33.866Z,13.98
2022-10-21T02:42:08.617Z,14.73
2022-10-21T02:44:37.962Z,13.60
2022-10-21T02:47:07.558Z,13.48
2022-10-21T02:49:36.713Z,14.18
2022-10-21T02:52:07.817Z,13.65
2022-10-21T02:54:37.114Z,15.02
2022-10-21T02:57:06.635Z,14.93
2022-10-21T03:04:58.114Z,14.02
2022-10-21T03:07:28.988Z,13.30
2022-10-21T03:09:58.226Z,14.48
2022-10-21T03:12:28.220Z,14.57
2022-10-21T03:14:57.563Z,17.52
2022-10-21T03:17:27.101Z,18.92
2022-10-21T03:19:56.242Z,16.17
2022-10-21T03:22:27.155Z,18.58
2022-10-21T03:24:56.390Z,16.80
2022-10-21T03:27:25.954Z,16.38
2022-10-21T03:29:55.193Z,16.70
2022-10-21T03:32:24.657Z,16.42
2022-10-21T03:34:54.038Z,15.95
2022-10-21T03:37:23.564Z,14.30
2022-10-21T03:50:23.754Z,13.27
2022-10-21T03:52:56.175Z,12.77
2022-10-21T03:55:25.417Z,13.38
2022-10-21T03:57:55.241Z,13.30
2022-10-21T04:00:27.091Z,13.38
2022-10-21T04:02:58.975Z,12.98
2022-10-21T04:05:29.615Z,12.93
2022-10-21T04:07:59.070Z,13.73
2022-10-21T04:10:28.487Z,21.75
2022-10-21T04:17:52.716Z,22.33
2022-10-21T04:20:22.443Z,21.15
2022-10-21T04:27:37.021Z,18.83
2022-10-21T04:30:07.293Z,20.35
2022-10-21T04:32:37.249Z,21.98
2022-10-21T04:35:07.415Z,19.02
2022-10-21T04:37:40.113Z,18.92
2022-10-21T04:49:59.012Z,19.00
2022-10-21T04:52:28.180Z,19.17
2022-10-21T04:54:57.705Z,20.05
2022-10-21T04:57:26.961Z,21.42
2022-10-21T04:59:56.445Z,19.55
2022-10-21T05:02:25.853Z,25.05
2022-10-21T05:04:55.351Z,20.77
2022-10-21T05:26:53.294Z,18.42
2022-10-21T05:29:22.614Z,19.33
2022-10-21T05:31:52.026Z,19.63
2022-10-21T05:34:21.313Z,20.30
2022-10-21T05:36:50.890Z,19.25
2022-10-21T05:39:20.119Z,19.95
2022-10-21T05:41:51.333Z,19.77
2022-10-21T05:53:59.019Z,15.88
2022-10-21T05:56:28.195Z,14.93
2022-10-21T05:58:59.157Z,15.35
2022-10-21T06:06:22.500Z,17.15
2022-10-21T06:08:51.744Z,17.27
2022-10-21T06:11:21.473Z,19.42
2022-10-21T06:13:50.885Z,23.00
2022-10-21T06:16:21.760Z,25.45
2022-10-21T06:18:51.072Z,29.00
2022-10-21T06:21:20.520Z,26.70
2022-10-21T06:23:49.862Z,29.85
2022-10-21T06:26:20.938Z,27.42
2022-10-21T06:28:51.036Z,28.88
2022-10-21T06:31:22.674Z,28.70
2022-10-21T06:33:51.941Z,26.23
2022-10-21T06:51:07.807Z,16.45
2022-10-21T06:53:39.362Z,17.15
2022-10-21T06:56:11.256Z,18.08
2022-10-21T06:58:43.399Z,18.27
2022-10-21T07:01:27.550Z,20.48
2022-10-21T07:04:03.856Z,18.27
2022-10-21T07:06:35.190Z,19.27
2022-10-21T07:09:04.832Z,17.73
2022-10-21T07:26:25.624Z,16.70
2022-10-21T07:33:39.505Z,18.30
2022-10-21T07:36:11.564Z,17.98
2022-10-21T07:38:46.616Z,17.75
2022-10-21T07:41:17.275Z,17.42
2022-10-21T07:48:20.385Z,19.00
2022-10-21T07:50:49.587Z,14.60
2022-10-21T07:58:13.472Z,16.33
2022-10-21T08:00:45.242Z,16.20
2022-10-21T08:13:04.156Z,16.48
2022-10-21T08:15:33.659Z,16.58
2022-10-21T08:18:03.146Z,15.05
2022-10-21T08:20:32.409Z,14.77
2022-10-21T08:23:01.858Z,13.65
2022-10-21T08:25:31.130Z,14.02
2022-10-21T08:28:00.560Z,14.07
2022-10-21T08:30:31.947Z,14.18
2022-10-21T08:37:55.837Z,16.65
2022-10-21T08:40:25.302Z,14.57
2022-10-21T08:42:54.851Z,13.85
2022-10-21T08:45:36.746Z,13.48
2022-10-21T08:53:05.933Z,11.65
2022-10-21T08:55:37.357Z,12.13
2022-10-21T08:58:07.315Z,11.07
2022-10-21T09:00:45.435Z,11.15
2022-10-21T09:03:24.626Z,11.82
2022-10-21T09:06:15.158Z,11.85
2022-10-21T09:14:06.235Z,10.68
2022-10-21T09:16:45.902Z,12.60
2022-10-21T09:19:31.106Z,12.63
2022-10-21T09:22:34.671Z,12.13
2022-10-21T09:25:18.550Z,11.77
2022-10-21T09:28:03.529Z,12.10
2022-10-21T09:30:33.644Z,12.85
2022-10-21T09:33:10.889Z,11.57
2022-10-21T09:40:35.155Z,17.63
2022-10-21T09:43:07.071Z,13.13
2022-10-21T09:45:38.958Z,11.40
2022-10-21T09:52:40.451Z,11.85
2022-10-21T09:55:14.757Z,11.20
2022-10-21T09:57:52.974Z,12.48
2022-10-21T10:10:31.942Z,13.48
2022-10-21T10:13:01.852Z,12.02
2022-10-21T10:15:36.703Z,13.20
2022-10-21T10:18:06.081Z,13.70
2022-10-21T10:20:35.491Z,12.63
2022-10-21T10:28:01.508Z,15.02
2022-10-21T10:30:38.234Z,13.15
2022-10-21T10:33:16.419Z,12.65
2022-10-21T10:35:50.743Z,13.55
2022-10-21T10:38:24.967Z,12.27
2022-10-21T10:40:57.744Z,12.80
2022-10-21T10:43:32.999Z,14.18
2022-10-21T10:46:05.534Z,12.90
2022-10-21T10:48:41.975Z,12.98
2022-10-21T10:51:26.515Z,12.07
2022-10-21T10:54:18.487Z,12.88
2022-10-21T10:56:53.716Z,11.93
2022-10-21T10:59:39.727Z,12.35
2022-10-21T11:02:28.705Z,12.18
2022-10-21T11:05:24.301Z,12.07
2022-10-21T11:07:55.295Z,13.65
2022-10-21T11:10:37.339Z,13.10
2022-10-21T11:13:12.888Z,13.88
2022-10-21T11:15:57.587Z,13.40
2022-10-21T11:18:34.754Z,12.82
2022-10-21T11:21:12.944Z,12.45
2022-10-21T11:24:06.558Z,13.02
2022-10-21T11:26:46.837Z,11.63
2022-10-21T11:29:29.375Z,12.50
2022-10-21T11:32:11.528Z,12.82
2022-10-21T11:34:54.553Z,12.30
2022-10-21T11:37:33.108Z,11.60
2022-10-21T11:40:14.383Z,12.07
2022-10-21T11:42:46.211Z,13.23
2022-10-21T11:45:31.685Z,12.30
2022-10-21T11:48:11.405Z,12.00
2022-10-21T11:50:51.543Z,12.15
2022-10-21T11:53:41.334Z,11.57
2022-10-21T11:56:22.461Z,12.23
2022-10-21T11:59:07.156Z,12.85
2022-10-21T12:01:49.127Z,12.45
2022-10-21T12:04:30.397Z,15.25
2022-10-21T12:07:12.482Z,15.68
2022-10-21T12:09:47.284Z,13.13
2022-10-21T12:12:19.114Z,13.07
2022-10-21T12:14:51.431Z,11.88
2022-10-21T12:17:23.329Z,14.57
2022-10-21T12:19:58.638Z,13.73
2022-10-21T12:22:30.706Z,13.32
2022-10-21T12:25:09.251Z,12.75
2022-10-21T12:27:44.587Z,12.43
2022-10-21T12:30:23.376Z,13.13
2022-10-21T12:33:13.970Z,12.50
2022-10-21T12:35:50.529Z,12.57
2022-10-21T12:38:26.871Z,11.40
2022-10-21T12:41:27.702Z,12.13
2022-10-21T12:44:14.372Z,12.52
2022-10-21T12:46:45.829Z,12.93
2022-10-21T12:49:28.132Z,13.18
2022-10-21T12:52:06.415Z,13.63
2022-10-21T12:54:43.506Z,13.10
2022-10-21T12:57:23.813Z,12.40
2022-10-21T13:00:13.645Z,12.82
2022-10-21T13:02:58.821Z,12.32
2022-10-21T13:06:02.279Z,11.97
2022-10-21T13:08:52.181Z,12.50
2022-10-21T13:11:24.803Z,12.82
2022-10-21T13:14:26.820Z,12.52
2022-10-21T13:17:32.368Z,13.27
2022-10-21T13:20:39.777Z,12.60
2022-10-21T13:23:37.679Z,13.60
2022-10-21T13:26:24.122Z,13.05
2022-10-21T13:29:10.328Z,12.95
2022-10-21T13:31:42.174Z,12.45
2022-10-21T13:34:29.509Z,12.25
2022-10-21T13:36:59.297Z,11.50
2022-10-21T13:39:34.528Z,12.68
2022-10-21T13:42:06.626Z,12.30
2022-10-21T13:44:39.545Z,12.30
2022-10-21T13:47:30.458Z,12.55
2022-10-21T13:50:12.780Z,13.75
2022-10-21T13:52:45.538Z,13.88
2022-10-21T13:55:23.207Z,12.73
2022-10-21T13:57:54.989Z,13.88
2022-10-21T14:00:26.657Z,12.57
2022-10-21T14:03:01.247Z,13.23
2022-10-21T14:05:34.568Z,12.38
2022-10-21T14:08:04.761Z,12.23
2022-10-21T14:10:35.774Z,13.18
2022-10-21T14:13:06.658Z,12.40
2022-10-21T14:15:43.099Z,15.77
2022-10-21T14:18:28.270Z,13.30
2022-10-21T14:21:00.063Z,14.27
2022-10-21T14:23:30.913Z,13.75
2022-10-21T14:26:09.764Z,16.20
2022-10-21T14:28:39.722Z,16.60
2022-10-21T14:31:12.631Z,13.43
2022-10-21T14:33:45.142Z,16.15
2022-10-21T14:36:19.928Z,14.35
2022-10-21T14:38:58.916Z,14.68
2022-10-21T14:41:33.819Z,21.13
2022-10-21T14:44:10.404Z,15.98
2022-10-21T14:46:45.358Z,21.23
2022-10-21T14:49:24.954Z,18.40
2022-10-21T14:52:00.796Z,31.77
2022-10-21T14:57:04.545Z,19.33
2022-10-21T14:59:39.468Z,28.05
2022-10-21T15:02:18.535Z,17.88
2022-10-21T15:04:53.392Z,21.95
2022-10-21T15:07:30.183Z,17.45
2022-10-21T15:10:20.052Z,26.52
2022-10-21T15:12:52.882Z,20.25
2022-10-21T15:15:56.036Z,20.58
2022-10-21T15:18:30.299Z,17.17
2022-10-21T15:21:01.670Z,15.52
2022-10-21T15:23:35.447Z,16.85
2022-10-21T15:26:11.866Z,18.60
2022-10-21T15:28:43.527Z,20.58
2022-10-21T15:31:17.352Z,20.55
2022-10-21T15:33:49.171Z,20.02
2022-10-21T15:36:19.597Z,15.80
2022-10-21T15:38:50.182Z,15.95
2022-10-21T15:41:21.202Z,16.20
2022-10-21T15:43:59.868Z,15.98
2022-10-21T15:46:30.396Z,16.70
2022-10-21T15:49:07.071Z,16.65
2022-10-21T15:51:36.361Z,19.73
2022-10-21T15:54:06.090Z,42.85
2022-10-21T15:56:35.547Z,19.58
2022-10-21T15:59:06.801Z,18.58
2022-10-21T16:01:36.399Z,30.25
2022-10-21T16:04:06.160Z,24.48
2022-10-21T16:06:35.439Z,25.17
2022-10-21T16:09:05.170Z,20.85
2022-10-21T16:11:41.144Z,18.77
2022-10-21T16:14:18.724Z,19.60
2022-10-21T16:16:50.711Z,21.38
2022-10-21T16:19:20.465Z,29.73
2022-10-21T16:21:50.626Z,23.00
2022-10-21T16:24:20.614Z,22.67
2022-10-21T16:26:51.349Z,20.77
2022-10-21T16:29:23.699Z,22.58
2022-10-21T16:31:54.145Z,18.25
2022-10-21T16:34:23.819Z,18.35
2022-10-21T16:36:53.166Z,17.58
2022-10-21T16:39:25.476Z,19.15
2022-10-21T16:41:55.120Z,17.80
2022-10-21T16:44:26.302Z,18.00
2022-10-21T16:46:56.751Z,20.92
2022-10-21T16:49:28.373Z,19.40
2022-10-21T16:51:57.929Z,18.50
2022-10-21T16:54:27.694Z,21.70
2022-10-21T16:56:57.075Z,19.00
2022-10-21T16:59:27.993Z,18.98
2022-10-21T17:01:59.265Z,19.98
2022-10-21T17:04:29.459Z,20.80
2022-10-21T17:07:00.700Z,19.33
2022-10-21T17:09:30.603Z,19.38
2022-10-21T17:12:00.369Z,19.42
2022-10-21T17:14:31.680Z,20.52
2022-10-21T17:17:01.309Z,18.58
2022-10-21T17:19:30.957Z,19.35
2022-10-21T17:22:01.063Z,23.25
2022-10-21T17:24:30.862Z,22.25
2022-10-21T17:27:00.370Z,21.48
2022-10-21T17:29:31.355Z,21.80
2022-10-21T17:32:00.799Z,25.52
2022-10-21T17:34:32.477Z,23.00
2022-10-21T17:37:02.470Z,21.83
2022-10-21T17:39:32.202Z,21.33
2022-10-21T17:42:01.730Z,23.20
2022-10-21T17:44:33.443Z,22.67
2022-10-21T17:47:02.755Z,22.70
2022-10-21T17:49:33.506Z,23.88
2022-10-21T17:52:03.008Z,21.10
2022-10-21T17:54:36.095Z,18.95
2022-10-21T17:57:06.142Z,18.63
2022-10-21T17:59:37.143Z,19.50
2022-10-21T18:02:06.484Z,22.60
2022-10-21T18:04:36.086Z,22.05
2022-10-21T18:07:09.312Z,21.85
2022-10-21T18:09:39.706Z,23.92
2022-10-21T18:12:10.435Z,20.27
2022-10-21T18:14:41.772Z,20.38
2022-10-21T18:17:11.280Z,24.10
2022-10-21T18:19:41.055Z,24.73
2022-10-21T18:22:10.513Z,25.20
2022-10-21T18:24:40.502Z,25.58
2022-10-21T18:27:10.266Z,22.67
2022-10-21T18:29:41.484Z,21.33
2022-10-21T18:32:13.786Z,22.52
2022-10-21T18:34:44.794Z,21.80
2022-10-21T18:37:14.311Z,21.17
2022-10-21T18:39:44.028Z,22.35
2022-10-21T18:42:13.770Z,22.52
2022-10-21T18:44:45.378Z,22.15
2022-10-21T18:47:14.712Z,22.98
2022-10-21T18:49:44.677Z,28.65
2022-10-21T18:52:14.143Z,25.67
2022-10-21T18:54:46.123Z,26.35
2022-10-21T18:57:15.560Z,24.50
2022-10-21T18:59:47.998Z,22.15
2022-10-21T19:02:22.215Z,21.63
2022-10-21T19:04:55.941Z,23.17
2022-10-21T19:07:28.469Z,43.97
2022-10-21T19:09:58.193Z,22.42
2022-10-21T19:12:27.598Z,24.23
2022-10-21T19:14:58.667Z,22.77
2022-10-21T19:17:28.814Z,24.60
2022-10-21T19:19:59.586Z,21.10
2022-10-21T19:25:05.807Z,23.98
2022-10-21T19:27:35.129Z,23.02
2022-10-21T19:30:06.837Z,22.40
2022-10-21T19:32:36.905Z,22.23
2022-10-21T19:35:08.810Z,22.77
2022-10-21T19:37:38.544Z,23.25
2022-10-21T19:40:09.170Z,22.35
2022-10-21T19:42:41.309Z,24.27
2022-10-21T19:45:17.156Z,22.40
2022-10-21T19:47:47.089Z,24.45
2022-10-21T19:50:16.778Z,25.75
2022-10-21T19:52:46.112Z,26.23
2022-10-21T19:55:17.389Z,27.33
2022-10-21T19:57:47.159Z,29.50
2022-10-21T20:00:18.371Z,30.80
2022-10-21T20:02:50.288Z,29.52
2022-10-21T20:05:20.150Z,29.17
2022-10-21T20:07:49.475Z,28.02
2022-10-21T20:10:20.559Z,28.83
2022-10-21T20:12:49.926Z,28.67
2022-10-21T20:15:21.027Z,28.90
2022-10-21T20:17:50.487Z,28.67
2022-10-21T20:20:20.214Z,30.60
2022-10-21T20:22:49.536Z,33.45
2022-10-21T20:25:19.388Z,31.65
2022-10-21T20:27:48.860Z,30.80
2022-10-21T20:30:20.003Z,31.73
2022-10-21T20:32:52.896Z,32.13
2022-10-21T20:35:23.227Z,31.45
2022-10-21T20:37:53.186Z,33.08
2022-10-21T20:40:22.694Z,53.45
2022-10-21T20:42:52.145Z,62.95
2022-10-21T20:45:23.120Z,64.13
2022-10-21T20:47:52.601Z,61.10
2022-10-21T20:50:22.097Z,53.13
2022-10-21T20:52:51.486Z,48.83
2022-10-21T20:55:21.655Z,45.95
2022-10-21T20:57:50.867Z,42.38
2022-10-21T21:00:21.969Z,44.17
2022-10-21T21:02:51.501Z,41.70
2022-10-21T21:05:21.062Z,39.72
2022-10-21T21:07:50.356Z,42.47
2022-10-21T21:10:19.937Z,42.95
2022-10-21T21:12:49.226Z,44.10
2022-10-21T21:15:18.783Z,44.70
2022-10-21T21:17:51.329Z,48.50
2022-10-21T21:20:20.712Z,46.67
2022-10-21T21:22:49.955Z,43.72
2022-10-21T21:25:19.651Z,41.78
2022-10-21T21:27:48.898Z,35.50
2022-10-21T21:30:18.560Z,34.65
2022-10-21T21:32:55.659Z,34.40
2022-10-21T21:35:25.322Z,34.17
2022-10-21T21:37:54.572Z,34.40
2022-10-21T21:40:24.033Z,33.50
2022-10-21T21:42:53.391Z,37.40
2022-10-21T21:45:22.977Z,38.88
2022-10-21T21:47:52.284Z,38.35
2022-10-21T21:50:23.166Z,36.03
2022-10-21T21:52:52.395Z,33.25
2022-10-21T21:55:22.006Z,38.58
2022-10-21T21:57:51.409Z,35.97
2022-10-21T22:00:20.888Z,33.28
2022-10-21T22:02:50.069Z,32.55
2022-10-21T22:05:24.740Z,33.33
2022-10-21T22:07:56.871Z,34.10
2022-10-21T22:10:26.613Z,32.60
2022-10-21T22:12:56.930Z,32.10
2022-10-21T22:18:15.774Z,30.67
2022-10-21T22:20:46.468Z,28.70
2022-10-21T22:23:19.688Z,29.65
2022-10-21T22:25:50.132Z,29.65
2022-10-21T22:28:19.359Z,28.73
2022-10-21T22:30:57.065Z,29.25
2022-10-21T22:33:26.466Z,30.08
2022-10-21T22:35:55.939Z,29.63
2022-10-21T22:38:27.038Z,27.25
2022-10-21T22:40:57.688Z,28.38
2022-10-21T22:43:28.299Z,28.00
2022-10-21T22:46:04.997Z,28.40
2022-10-21T22:48:47.267Z,29.55
2022-10-21T22:51:16.954Z,26.58
2022-10-21T22:53:53.365Z,27.35
2022-10-21T22:56:25.910Z,26.95
2022-10-21T22:58:55.212Z,30.00
2022-10-21T23:01:28.868Z,29.65
2022-10-21T23:03:58.542Z,29.63
2022-10-21T23:06:28.120Z,29.50
2022-10-21T23:08:58.949Z,30.85
2022-10-21T23:11:28.926Z,29.27
2022-10-21T23:14:03.309Z,31.17
2022-10-21T23:16:37.348Z,33.20
2022-10-21T23:19:07.578Z,34.50
2022-10-21T23:21:37.805Z,34.50
2022-10-21T23:24:09.206Z,34.42
2022-10-21T23:26:38.887Z,38.72
2022-10-21T23:29:08.110Z,36.88
2022-10-21T23:31:38.025Z,32.92
2022-10-21T23:34:07.406Z,33.25
2022-10-21T23:36:36.897Z,32.38
2022-10-21T23:39:08.270Z,30.98
2022-10-21T23:41:37.870Z,28.80
2022-10-21T23:44:07.386Z,29.13
2022-10-21T23:46:37.074Z,29.48
2022-10-21T23:49:06.801Z,28.70
2022-10-21T23:51:36.557Z,28.52
2022-10-21T23:54:06.072Z,28.70
2022-10-21T23:56:36.982Z,28.40
2022-10-21T23:59:06.969Z,29.85
